Terminal Aerodrome Forecast
Issued by NWS Austin/San Antonio, TX

Home | Current Version | Previous Version | Text Only | Print | Product List | Glossary On
Versions: 1 2 3 4 5 6 7 8 9 10 11 12 13 14 15 16
000
FTUS44 KEWX 041739
TAFDRT
TAF
KDRT 041739Z 0418/0518 12015G25KT P6SM BKN035
      TEMPO 0421/0424 13015G25KT 6SM -TSRA OVC030CB
     FM050100 13015KT P6SM -SHRA OVC025
     FM050900 13014KT P6SM OVC007=

USA.gov is the U.S. government's official web portal to all federal, state and local government web resources and services.